createdAt,value
2016-12-04T00:04:05.287Z,0
2016-12-04T00:09:09.717Z,0
2016-12-04T00:14:13.815Z,0
2016-12-04T00:19:17.911Z,0
2016-12-04T00:24:22.004Z,0
2016-12-04T00:29:26.092Z,0
2016-12-04T00:34:30.184Z,0
2016-12-04T00:39:34.614Z,0
2016-12-04T00:44:38.712Z,0
2016-12-04T00:49:42.807Z,0
2016-12-04T00:54:47.238Z,0
2016-12-04T00:59:51.338Z,0
2016-12-04T01:04:55.430Z,0
2016-12-04T01:09:59.866Z,0
2016-12-04T01:15:04.300Z,0
2016-12-04T01:20:08.399Z,0
2016-12-04T01:25:12.494Z,0
2016-12-04T01:30:16.933Z,0
2016-12-04T01:35:21.032Z,0
2016-12-04T01:40:25.126Z,0
2016-12-04T01:45:29.561Z,0
2016-12-04T01:50:33.656Z,0
2016-12-04T01:55:37.748Z,0
2016-12-04T02:00:42.181Z,0
2016-12-04T02:05:46.281Z,0
2016-12-04T02:10:50.720Z,0
2016-12-04T02:15:55.489Z,0
2016-12-04T02:20:59.586Z,0
2016-12-04T02:26:04.019Z,0
2016-12-04T02:31:08.112Z,0
2016-12-04T02:36:12.210Z,0
2016-12-04T02:41:16.308Z,0
2016-12-04T02:46:20.725Z,0
2016-12-04T02:51:25.143Z,0
2016-12-04T02:56:29.242Z,0
2016-12-04T03:01:33.321Z,0
2016-12-04T03:06:37.401Z,0
2016-12-04T03:11:41.481Z,0
2016-12-04T03:16:45.562Z,0
2016-12-04T03:21:49.977Z,0
2016-12-04T03:26:54.056Z,0
2016-12-04T03:31:58.139Z,0
2016-12-04T03:37:02.564Z,0
2016-12-04T03:42:06.651Z,0
2016-12-04T03:47:10.735Z,0
2016-12-04T03:52:14.820Z,0
2016-12-04T03:57:19.572Z,0
2016-12-04T04:02:23.990Z,0
2016-12-04T04:07:28.400Z,0
2016-12-04T04:12:32.490Z,0
2016-12-04T04:17:36.566Z,0
2016-12-04T04:22:40.652Z,0
2016-12-04T04:27:45.072Z,0
2016-12-04T04:32:49.500Z,0
2016-12-04T04:37:54.250Z,0
2016-12-04T04:42:58.672Z,0
2016-12-04T04:48:02.752Z,0
2016-12-04T04:53:07.514Z,0
2016-12-04T04:58:11.593Z,0
2016-12-04T05:03:15.690Z,0
2016-12-04T05:08:20.111Z,0
2016-12-04T05:13:25.210Z,0
2016-12-04T05:18:29.626Z,0
2016-12-04T05:23:34.042Z,0
2016-12-04T05:28:38.123Z,0
2016-12-04T05:33:42.198Z,0
2016-12-04T05:38:46.284Z,0
2016-12-04T05:43:50.708Z,0
2016-12-04T05:48:55.455Z,0
2016-12-04T05:53:59.878Z,0
2016-12-04T05:59:03.964Z,0
2016-12-04T06:04:08.048Z,0
2016-12-04T06:09:12.464Z,0
2016-12-04T06:14:16.882Z,0
2016-12-04T06:19:21.495Z,0
2016-12-04T06:24:25.924Z,0
2016-12-04T06:29:30.003Z,0
2016-12-04T06:34:34.418Z,0
2016-12-04T06:39:38.502Z,0
2016-12-04T06:44:43.247Z,0
2016-12-04T06:49:47.328Z,1
2016-12-04T06:54:51.414Z,2
2016-12-04T06:59:55.496Z,2
2016-12-04T07:05:00.255Z,4
2016-12-04T07:10:04.339Z,5
2016-12-04T07:15:08.419Z,8
2016-12-04T07:20:12.837Z,11
2016-12-04T07:25:17.293Z,15
2016-12-04T07:30:21.369Z,21
2016-12-04T07:35:25.792Z,29
2016-12-04T07:40:29.879Z,37
2016-12-04T07:45:33.959Z,48
2016-12-04T07:50:38.375Z,58
2016-12-04T07:55:42.795Z,67
2016-12-04T08:00:46.875Z,79
2016-12-04T08:05:51.295Z,98
2016-12-04T08:10:56.043Z,114
2016-12-04T08:16:00.463Z,132
2016-12-04T08:21:04.551Z,150
2016-12-04T08:26:08.968Z,178
2016-12-04T08:31:13.056Z,223
2016-12-04T08:36:17.474Z,228
2016-12-04T08:41:21.895Z,257
2016-12-04T08:46:26.642Z,268
2016-12-04T08:51:30.736Z,285
2016-12-04T08:56:34.836Z,285
2016-12-04T09:01:39.255Z,338
2016-12-04T09:06:43.676Z,285
2016-12-04T09:11:48.095Z,336
2016-12-04T09:16:52.511Z,385
2016-12-04T09:21:56.586Z,400
2016-12-04T09:27:01.340Z,498
2016-12-04T09:32:05.764Z,449
2016-12-04T09:37:09.855Z,397
2016-12-04T09:42:13.935Z,410
2016-12-04T09:47:18.375Z,410
2016-12-04T09:57:42.503Z,401
2016-12-04T10:02:46.594Z,399
2016-12-04T10:07:50.707Z,426
2016-12-04T10:12:54.794Z,418
2016-12-04T10:17:58.900Z,372
2016-12-04T10:23:03.652Z,358
2016-12-04T10:28:07.738Z,358
2016-12-04T10:33:11.826Z,337
2016-12-04T10:38:15.909Z,333
2016-12-04T10:43:20.334Z,340
2016-12-04T10:48:24.432Z,344
2016-12-04T10:53:28.532Z,357
2016-12-04T10:58:32.980Z,361
2016-12-04T11:03:37.475Z,345
2016-12-04T11:08:42.266Z,353
2016-12-04T11:13:47.025Z,360
2016-12-04T11:18:51.116Z,353
2016-12-04T11:23:55.223Z,353
2016-12-04T11:28:59.323Z,363
2016-12-04T11:34:03.403Z,369
2016-12-04T11:39:07.599Z,367
2016-12-04T11:44:11.704Z,352
2016-12-04T11:49:16.142Z,349
2016-12-04T11:54:20.265Z,341
2016-12-04T11:59:24.351Z,343
2016-12-04T12:04:28.789Z,312
2016-12-04T12:09:33.872Z,318
2016-12-04T12:14:38.607Z,318
2016-12-04T12:19:42.760Z,309
2016-12-04T12:24:47.516Z,286
2016-12-04T12:29:51.943Z,314
2016-12-04T12:34:56.031Z,317
2016-12-04T12:40:00.119Z,312
2016-12-04T12:45:04.552Z,307
2016-12-04T12:50:08.695Z,287
2016-12-04T12:55:12.846Z,273
2016-12-04T13:00:17.161Z,267
2016-12-04T13:05:21.601Z,249
2016-12-04T13:10:26.238Z,232
2016-12-04T13:15:30.997Z,230
2016-12-04T13:20:35.088Z,216
2016-12-04T13:25:39.838Z,210
2016-12-04T13:30:43.941Z,198
2016-12-04T13:35:48.037Z,193
2016-12-04T13:40:52.465Z,178
2016-12-04T13:45:56.691Z,168
2016-12-04T13:51:00.987Z,152
2016-12-04T13:56:05.085Z,139
2016-12-04T14:01:09.177Z,125
2016-12-04T14:06:13.279Z,115
2016-12-04T14:11:17.368Z,100
2016-12-04T14:16:21.465Z,92
2016-12-04T14:21:25.549Z,84
2016-12-04T14:26:29.974Z,74
2016-12-04T14:31:34.076Z,65
2016-12-04T14:36:38.825Z,58
2016-12-04T14:41:42.911Z,49
2016-12-04T14:46:46.993Z,39
2016-12-04T14:51:51.344Z,29
2016-12-04T14:56:56.226Z,21
2016-12-04T15:02:00.409Z,15
2016-12-04T15:07:05.853Z,11
2016-12-04T15:12:10.278Z,7
2016-12-04T15:17:14.679Z,5
2016-12-04T15:22:18.775Z,2
2016-12-04T15:27:23.527Z,1
2016-12-04T15:32:27.612Z,1
2016-12-04T15:37:32.033Z,1
2016-12-04T15:42:36.451Z,0
2016-12-04T15:47:40.874Z,0
2016-12-04T15:52:44.954Z,0
2016-12-04T15:57:49.044Z,0
2016-12-04T16:02:53.462Z,0
2016-12-04T16:07:57.551Z,0
2016-12-04T16:13:01.663Z,0
2016-12-04T16:18:06.148Z,0
2016-12-04T16:23:11.064Z,0
2016-12-04T16:28:15.294Z,0
2016-12-04T16:33:19.754Z,0
2016-12-04T16:38:23.822Z,0
2016-12-04T16:43:28.258Z,0
2016-12-04T16:48:32.682Z,0
2016-12-04T16:53:36.764Z,0
2016-12-04T16:58:40.860Z,2
2016-12-04T17:03:45.511Z,0
2016-12-04T17:08:49.595Z,0
2016-12-04T17:13:53.679Z,0
2016-12-04T17:18:57.757Z,0
2016-12-04T17:24:02.172Z,0
2016-12-04T17:29:06.269Z,0
2016-12-04T17:34:10.756Z,0
2016-12-04T17:39:15.113Z,0
2016-12-04T17:44:19.242Z,0
2016-12-04T17:49:23.660Z,0
2016-12-04T17:54:28.446Z,0
2016-12-04T17:59:32.891Z,0
2016-12-04T18:04:37.312Z,0
2016-12-04T18:09:41.437Z,0
2016-12-04T18:14:45.571Z,0
2016-12-04T18:19:49.683Z,0
2016-12-04T18:24:54.445Z,0
2016-12-04T18:29:59.210Z,0
2016-12-04T18:35:03.300Z,0
2016-12-04T18:40:07.379Z,0
2016-12-04T18:45:12.138Z,0
2016-12-04T18:50:16.888Z,0
2016-12-04T18:55:20.973Z,0
2016-12-04T19:00:26.063Z,0
2016-12-04T19:05:30.158Z,0
2016-12-04T19:10:34.295Z,0
2016-12-04T19:15:38.394Z,0
2016-12-04T19:20:42.484Z,0
2016-12-04T19:25:46.907Z,0
2016-12-04T19:30:51.999Z,0
2016-12-04T19:35:56.096Z,0
2016-12-04T19:41:00.190Z,0
2016-12-04T19:46:04.914Z,0
2016-12-04T19:51:09.668Z,0
2016-12-04T19:56:14.433Z,0
2016-12-04T20:01:18.521Z,0
2016-12-04T20:06:22.949Z,0
2016-12-04T20:11:27.031Z,0
2016-12-04T20:16:31.241Z,0
2016-12-04T20:21:36.008Z,0
2016-12-04T20:26:40.427Z,0
2016-12-04T20:31:44.849Z,0
2016-12-04T20:36:49.264Z,0
2016-12-04T20:41:53.685Z,0
2016-12-04T20:46:58.149Z,1
2016-12-04T20:52:02.587Z,0
2016-12-04T20:57:07.362Z,0
2016-12-04T21:02:11.788Z,0
2016-12-04T21:07:16.262Z,0
2016-12-04T21:12:21.217Z,0
2016-12-04T21:17:25.665Z,0
2016-12-04T21:22:30.423Z,0
2016-12-04T21:27:35.158Z,0
2016-12-04T21:32:39.343Z,0
2016-12-04T21:37:43.770Z,0
2016-12-04T21:42:47.863Z,0
2016-12-04T21:47:51.946Z,0
2016-12-04T21:52:56.034Z,0
2016-12-04T21:58:00.116Z,0
2016-12-04T22:03:04.537Z,0
2016-12-04T22:08:08.621Z,0
2016-12-04T22:13:13.042Z,0
2016-12-04T22:18:17.794Z,0
2016-12-04T22:23:22.207Z,0
2016-12-04T22:28:26.297Z,0
2016-12-04T22:33:30.373Z,0
2016-12-04T22:38:34.449Z,0
2016-12-04T22:43:38.527Z,0
2016-12-04T22:48:42.607Z,0
2016-12-04T22:53:46.691Z,0
2016-12-04T22:58:50.770Z,0
2016-12-04T23:03:55.523Z,0
2016-12-04T23:08:59.611Z,0
2016-12-04T23:14:04.022Z,0
2016-12-04T23:19:08.100Z,0
2016-12-04T23:24:12.848Z,0
2016-12-04T23:29:16.925Z,0
2016-12-04T23:34:21.342Z,0
2016-12-04T23:39:25.424Z,0
2016-12-04T23:44:29.508Z,0
2016-12-04T23:49:33.931Z,0
2016-12-04T23:54:38.007Z,0
2016-12-04T23:59:42.085Z,0
